Aérodrome :
LOGIN :

S'inscrire | Disclaimer

   EN    FR    IT 

 










Légende :    VFR   VFR Marginal   IFR   IFR Intensif   IFR Très Intensif
Visi : 
Plafond : 
>= 8 km
>= 3000ft
5 à 8 km
1000 à 3000 ft
1500m à 5 km
500 à 1000 ft
800 à 1500m
200 à 500 ft
< 800m
< 200 ft
Symboles :   Orages  Brouillard  Fortes neiges  Fortes précipitations  Vent > 20 kt
SIGMETs :   Divers  Orages  Givrage  Turbulence  Onde Orograph.  Cendres Volcan.






- Altitude de l'aérodrome : 170 ft
- Code IATA : KRP


EKKA - Karup

DERNIER METAR :
  • 231750Z AUTO 27012KT 9999 FEW040/// 04/01 Q1000

METARs EXPIRÉS :
  • 231720Z AUTO 27013KT 9999 FEW027/// SCT040/// 05/01 Q0999
  • 231650Z AUTO 27012KT 9999 NCD 04/01 Q0999
  • 231620Z 29012KT 9999 FEW020CB 05/01 Q0998
  • 231554Z 28013KT 9999 FEW018CB BKN025 SCT120 05/01 Q0998
  • 231520Z AUTO 29014KT 9999 FEW026/// 05/01 Q0998

TAF TAF EKKA
Valide du 23 à 18h jusqu'au 24 à 18h UTC


231707Z 2318/2418 26010KT 9999 SCT020
TEMPO 2318/2323 27015G28KT 5000 SHRAGS FEW012 SCT020CB
BECMG 2407/2410 20005KT
BECMG 2415/2418 14012KT 4000 -RADZ BKN008



MET'MAP, la Météo Aéronautique d'un coup d'oeil ! - Copyright ORBIFLY Décembre 2007 - Disclaimer

ORBIFLY MET'MAP TEAM :

Programmation & Développement : Alexandra Zaïnal
Sur une idée originale de : Baudouin d'Aumeries
Assistance à la programmation : Marc-Olivier Méhu
Soutien technique & logistique : Manuel Goepfert

Contact : metmap@orbifly.com




SOURCES & CREDITS :

   NOAA